PORT of CALLAO

Country: Peru Country: Peru (PE)
Latitude / Longitude: -12.031435° / -77.16856° Show on Map Show on Map
Local Time:  UTC-5
UN/LOCODE: PECLL
Vessels in Port: 37
Expected Arrivals: 31

Recent Arrivals & Departures


Vessel Name
Arrival (UTC)
Arrival (LT)
Departure (UTC)
Departure (LT)
Vessel Type: Cargo Vessels  EGS WAVE 2014-10-28 19:59:00 2014-10-28 14:59:00 2014-10-30 16:02:00 2014-10-30 11:02:00
Vessel Type: Cargo Vessels  OSLO BULK 4 2014-10-30 15:01:00 2014-10-30 10:01:00
Vessel Type: Cargo Vessels  CAP ISABEL 2014-10-30 13:34:00 2014-10-30 08:34:00
Vessel Type: Cargo Vessels  COSCO FUKUYAMA 2014-10-30 10:26:00 2014-10-30 05:26:00
Vessel Type: Cargo Vessels  QUEEN FLOWER 2014-10-30 08:56:00 2014-10-30 03:56:00
Vessel Type: Cargo Vessels  LORD NELSON 2014-10-25 07:14:00 2014-10-25 02:14:00 2014-10-30 06:43:00 2014-10-30 01:43:00
Vessel Type: Cargo Vessels  CNP PAITA 2014-10-23 19:28:00 2014-10-23 14:28:00 2014-10-30 05:45:00 2014-10-30 00:45:00
Vessel Type: Cargo Vessels  EVER ULTRA 2014-10-30 03:44:00 2014-10-29 22:44:00
Vessel Type: Cargo Vessels  GLASGOW EXPRESS 2014-10-29 01:09:00 2014-10-28 20:09:00 2014-10-30 03:23:00 2014-10-29 22:23:00
Vessel Type: Cargo Vessels  CSAV TRAIGUEM 2014-10-29 03:31:00 2014-10-28 22:31:00 2014-10-30 02:59:00 2014-10-29 21:59:00

Expected Arrivals


Vessel Name
Scheduled Arrival (UTC)
Scheduled Arrival (LT)
Estimated Arrival (UTC)
Estimated Arrival (LT)
Vessel Type: Cargo Vessels  BODO SCHULTE 2014-10-30 14:30:00 2014-10-30 09:30:00 2014-10-30 19:26:00 2014-10-30 14:26:00
Vessel Type: Cargo Vessels  SONCHE TRADER 2014-10-31 00:00:00 2014-10-30 19:00:00 2014-10-31 07:32:00 2014-10-31 02:32:00
Vessel Type: Cargo Vessels  HOEGH OSLO 2014-10-31 05:00:00 2014-10-31 00:00:00 2014-10-31 03:59:00 2014-10-30 22:59:00
Vessel Type: Cargo Vessels  MAPOCHO 2014-10-31 08:00:00 2014-10-31 03:00:00 2014-11-01 12:42:00 2014-11-01 07:42:00
Vessel Type: Cargo Vessels  WEHR KOBLENZ 2014-10-31 15:00:00 2014-10-31 10:00:00
Vessel Type: Cargo Vessels  CNP ILO 2014-10-31 16:00:00 2014-10-31 11:00:00 2014-10-31 20:12:00 2014-10-31 15:12:00
Vessel Type: Tankers  AZTEC 2014-10-31 23:00:00 2014-10-31 18:00:00 2014-11-01 00:56:00 2014-10-31 19:56:00
Vessel Type: Cargo Vessels  ELLENSBORG 2014-10-31 23:59:00 2014-10-31 18:59:00 2014-10-31 21:58:00 2014-10-31 16:58:00
Vessel Type: Tugs, Pilots etc  TRITON 2014-11-01 00:00:00 2014-10-31 19:00:00
Vessel Type: Cargo Vessels  CMA CGM AMERICA 2014-11-01 06:00:00 2014-11-01 01:00:00 2014-11-01 10:15:00 2014-11-01 05:15:00

Wind Forecast


    
Time (UTC)
Speed
Direction
Temperature
2014-10-30 15:00:00 13 knots 199° 18°C
2014-10-30 18:00:00 12 knots 209° 18°C
2014-10-30 21:00:00 11 knots 198° 18°C
2014-10-31 00:00:00 12 knots 183° 17°C
2014-10-31 03:00:00 12 knots 185° 17°C
2014-10-31 06:00:00 11 knots 188° 17°C
2014-10-31 09:00:00 9 knots 196° 16°C
2014-10-31 12:00:00 9 knots 196° 17°C
2014-10-31 15:00:00 10 knots 207° 18°C
2014-10-31 18:00:00 10 knots 208° 18°C
2014-10-31 21:00:00 12 knots 193° 18°C
2014-11-01 00:00:00 11 knots 176° 17°C
2014-11-01 03:00:00 12 knots 170° 17°C
2014-11-01 06:00:00 12 knots 181° 17°C
2014-11-01 09:00:00 10 knots 187° 17°C
2014-11-01 12:00:00 10 knots 196° 17°C
2014-11-01 15:00:00 10 knots 205° 18°C